sensor_id;sensor_type;location;lat;lon;timestamp;temperature;humidity
17891;DHT22;9071;48.220;14.480;2023-08-30T00:03:19;14.00;99.90
17891;DHT22;9071;48.220;14.480;2023-08-30T00:08:23;14.00;99.90
17891;DHT22;9071;48.220;14.480;2023-08-30T00:13:25;14.00;99.90
17891;DHT22;9071;48.220;14.480;2023-08-30T00:18:27;14.00;99.90
17891;DHT22;9071;48.220;14.480;2023-08-30T00:23:30;14.00;99.90
17891;DHT22;9071;48.220;14.480;2023-08-30T00:28:32;14.00;99.90
17891;DHT22;9071;48.220;14.480;2023-08-30T00:33:34;14.00;99.90
17891;DHT22;9071;48.220;14.480;2023-08-30T00:38:37;14.00;99.90
17891;DHT22;9071;48.220;14.480;2023-08-30T00:43:39;14.00;99.90
17891;DHT22;9071;48.220;14.480;2023-08-30T00:48:41;14.00;99.90
17891;DHT22;9071;48.220;14.480;2023-08-30T00:53:45;14.00;99.90
17891;DHT22;9071;48.220;14.480;2023-08-30T00:58:49;14.00;99.90
17891;DHT22;9071;48.220;14.480;2023-08-30T01:03:51;14.00;99.90
17891;DHT22;9071;48.220;14.480;2023-08-30T01:08:54;14.00;99.90
17891;DHT22;9071;48.220;14.480;2023-08-30T01:14:03;14.00;99.90
17891;DHT22;9071;48.220;14.480;2023-08-30T01:19:19;14.00;99.90
17891;DHT22;9071;48.220;14.480;2023-08-30T01:24:40;14.00;99.90
17891;DHT22;9071;48.220;14.480;2023-08-30T01:29:46;13.90;99.90
17891;DHT22;9071;48.220;14.480;2023-08-30T01:34:49;13.90;99.90
17891;DHT22;9071;48.220;14.480;2023-08-30T01:39:52;13.90;99.90
17891;DHT22;9071;48.220;14.480;2023-08-30T01:44:57;13.90;99.90
17891;DHT22;9071;48.220;14.480;2023-08-30T01:50:01;13.90;99.90
17891;DHT22;9071;48.220;14.480;2023-08-30T01:55:05;13.90;99.90
17891;DHT22;9071;48.220;14.480;2023-08-30T02:00:10;13.80;99.90
17891;DHT22;9071;48.220;14.480;2023-08-30T02:05:12;13.80;99.90
17891;DHT22;9071;48.220;14.480;2023-08-30T02:10:17;13.80;99.90
17891;DHT22;9071;48.220;14.480;2023-08-30T02:15:25;13.80;99.90
17891;DHT22;9071;48.220;14.480;2023-08-30T02:20:28;13.80;99.90
17891;DHT22;9071;48.220;14.480;2023-08-30T02:25:31;13.80;99.90
17891;DHT22;9071;48.220;14.480;2023-08-30T02:30:34;13.80;99.90
17891;DHT22;9071;48.220;14.480;2023-08-30T02:35:36;13.80;99.90
17891;DHT22;9071;48.220;14.480;2023-08-30T02:40:38;13.90;99.90
17891;DHT22;9071;48.220;14.480;2023-08-30T02:45:42;13.90;99.90
17891;DHT22;9071;48.220;14.480;2023-08-30T02:50:44;13.90;99.90
17891;DHT22;9071;48.220;14.480;2023-08-30T02:55:46;13.90;99.90
17891;DHT22;9071;48.220;14.480;2023-08-30T03:00:50;13.90;99.90
17891;DHT22;9071;48.220;14.480;2023-08-30T03:05:52;13.90;99.90
17891;DHT22;9071;48.220;14.480;2023-08-30T03:10:54;13.90;99.90
17891;DHT22;9071;48.220;14.480;2023-08-30T03:15:58;13.90;99.90
17891;DHT22;9071;48.220;14.480;2023-08-30T03:21:00;13.90;99.90
17891;DHT22;9071;48.220;14.480;2023-08-30T03:26:07;13.90;99.90
17891;DHT22;9071;48.220;14.480;2023-08-30T03:31:15;13.90;99.90
17891;DHT22;9071;48.220;14.480;2023-08-30T03:36:18;13.90;99.90
17891;DHT22;9071;48.220;14.480;2023-08-30T03:41:20;13.90;99.90
17891;DHT22;9071;48.220;14.480;2023-08-30T03:46:23;13.90;99.90
17891;DHT22;9071;48.220;14.480;2023-08-30T03:51:25;13.80;99.90
17891;DHT22;9071;48.220;14.480;2023-08-30T03:56:27;13.80;99.90
17891;DHT22;9071;48.220;14.480;2023-08-30T04:01:30;13.90;99.90
17891;DHT22;9071;48.220;14.480;2023-08-30T04:06:33;13.80;99.90
17891;DHT22;9071;48.220;14.480;2023-08-30T04:11:36;13.90;99.90
17891;DHT22;9071;48.220;14.480;2023-08-30T04:16:39;13.90;99.90
17891;DHT22;9071;48.220;14.480;2023-08-30T04:21:41;13.90;99.90
17891;DHT22;9071;48.220;14.480;2023-08-30T04:26:43;13.90;99.90
17891;DHT22;9071;48.220;14.480;2023-08-30T04:31:47;13.90;99.90
17891;DHT22;9071;48.220;14.480;2023-08-30T04:36:48;14.00;99.90
17891;DHT22;9071;48.220;14.480;2023-08-30T04:41:50;14.00;99.90
17891;DHT22;9071;48.220;14.480;2023-08-30T04:46:54;13.90;99.90
17891;DHT22;9071;48.220;14.480;2023-08-30T04:51:56;13.90;99.90
17891;DHT22;9071;48.220;14.480;2023-08-30T04:56:58;13.90;99.90
17891;DHT22;9071;48.220;14.480;2023-08-30T05:02:02;14.00;99.90
17891;DHT22;9071;48.220;14.480;2023-08-30T05:07:04;13.90;99.90
17891;DHT22;9071;48.220;14.480;2023-08-30T05:12:07;13.90;99.90
17891;DHT22;9071;48.220;14.480;2023-08-30T05:17:10;13.90;99.90
17891;DHT22;9071;48.220;14.480;2023-08-30T05:22:12;14.00;99.90
17891;DHT22;9071;48.220;14.480;2023-08-30T05:27:14;14.00;99.90
17891;DHT22;9071;48.220;14.480;2023-08-30T05:32:20;14.00;99.90
17891;DHT22;9071;48.220;14.480;2023-08-30T05:37:22;14.10;99.90
17891;DHT22;9071;48.220;14.480;2023-08-30T05:42:24;14.10;99.90
17891;DHT22;9071;48.220;14.480;2023-08-30T05:47:27;14.10;99.90
17891;DHT22;9071;48.220;14.480;2023-08-30T05:52:29;14.10;99.90
17891;DHT22;9071;48.220;14.480;2023-08-30T05:57:31;14.20;99.90
17891;DHT22;9071;48.220;14.480;2023-08-30T06:02:35;14.20;99.90
17891;DHT22;9071;48.220;14.480;2023-08-30T13:41:17;16.20;99.90
17891;DHT22;9071;48.220;14.480;2023-08-30T13:46:19;16.60;99.90
17891;DHT22;9071;48.220;14.480;2023-08-30T14:22:29;19.30;99.90
17891;DHT22;9071;48.220;14.480;2023-08-30T14:27:31;19.70;99.90
17891;DHT22;9071;48.220;14.480;2023-08-30T14:32:33;20.00;99.90
17891;DHT22;9071;48.220;14.480;2023-08-30T14:37:36;19.80;99.90
17891;DHT22;9071;48.220;14.480;2023-08-30T14:42:38;19.50;99.90
17891;DHT22;9071;48.220;14.480;2023-08-30T14:47:40;19.40;99.90
17891;DHT22;9071;48.220;14.480;2023-08-30T14:52:44;19.20;99.90
17891;DHT22;9071;48.220;14.480;2023-08-30T14:57:46;19.20;99.90
17891;DHT22;9071;48.220;14.480;2023-08-30T15:02:48;19.10;99.90
17891;DHT22;9071;48.220;14.480;2023-08-30T15:07:51;19.00;99.90
17891;DHT22;9071;48.220;14.480;2023-08-30T15:12:53;18.90;99.90
17891;DHT22;9071;48.220;14.480;2023-08-30T15:17:55;18.90;99.90
17891;DHT22;9071;48.220;14.480;2023-08-30T15:22:58;18.80;99.90
17891;DHT22;9071;48.220;14.480;2023-08-30T15:28:01;18.70;99.90
17891;DHT22;9071;48.220;14.480;2023-08-30T15:33:08;18.70;99.90
17891;DHT22;9071;48.220;14.480;2023-08-30T15:38:11;18.70;99.90
17891;DHT22;9071;48.220;14.480;2023-08-30T15:43:14;18.80;99.90
17891;DHT22;9071;48.220;14.480;2023-08-30T15:48:16;18.70;99.90
17891;DHT22;9071;48.220;14.480;2023-08-30T15:53:20;18.60;99.90
17891;DHT22;9071;48.220;14.480;2023-08-30T15:58:22;18.40;99.90
17891;DHT22;9071;48.220;14.480;2023-08-30T16:03:24;18.30;99.90
17891;DHT22;9071;48.220;14.480;2023-08-30T16:08:27;18.20;99.90
17891;DHT22;9071;48.220;14.480;2023-08-30T16:13:29;18.10;99.90
17891;DHT22;9071;48.220;14.480;2023-08-30T16:18:31;18.00;99.90
17891;DHT22;9071;48.220;14.480;2023-08-30T16:23:35;17.90;99.90
17891;DHT22;9071;48.220;14.480;2023-08-30T16:28:37;17.80;99.90
17891;DHT22;9071;48.220;14.480;2023-08-30T16:33:39;17.70;99.90
17891;DHT22;9071;48.220;14.480;2023-08-30T16:38:43;17.60;99.90
17891;DHT22;9071;48.220;14.480;2023-08-30T16:43:45;17.60;99.90
17891;DHT22;9071;48.220;14.480;2023-08-30T16:48:47;17.40;99.90
17891;DHT22;9071;48.220;14.480;2023-08-30T16:53:50;17.40;99.90
17891;DHT22;9071;48.220;14.480;2023-08-30T16:58:52;17.30;99.90
17891;DHT22;9071;48.220;14.480;2023-08-30T17:03:54;17.30;99.90
17891;DHT22;9071;48.220;14.480;2023-08-30T17:08:58;17.20;99.90
17891;DHT22;9071;48.220;14.480;2023-08-30T17:14:00;17.10;99.90
17891;DHT22;9071;48.220;14.480;2023-08-30T17:19:02;17.00;99.90
17891;DHT22;9071;48.220;14.480;2023-08-30T17:24:05;17.00;99.90
17891;DHT22;9071;48.220;14.480;2023-08-30T17:29:07;16.90;99.90
17891;DHT22;9071;48.220;14.480;2023-08-30T17:34:11;16.90;99.90
17891;DHT22;9071;48.220;14.480;2023-08-30T17:39:15;16.80;99.90
17891;DHT22;9071;48.220;14.480;2023-08-30T17:44:17;16.80;99.90
17891;DHT22;9071;48.220;14.480;2023-08-30T17:49:20;16.70;99.90
17891;DHT22;9071;48.220;14.480;2023-08-30T17:54:24;16.60;99.90
17891;DHT22;9071;48.220;14.480;2023-08-30T17:59:26;16.50;99.90
17891;DHT22;9071;48.220;14.480;2023-08-30T18:04:29;16.40;99.90
17891;DHT22;9071;48.220;14.480;2023-08-30T18:09:33;16.30;99.90
17891;DHT22;9071;48.220;14.480;2023-08-30T18:14:35;16.20;99.90
17891;DHT22;9071;48.220;14.480;2023-08-30T18:19:37;16.10;99.90
17891;DHT22;9071;48.220;14.480;2023-08-30T18:24:40;15.90;99.90
17891;DHT22;9071;48.220;14.480;2023-08-30T18:29:43;15.80;99.90
17891;DHT22;9071;48.220;14.480;2023-08-30T18:34:45;15.70;99.90
17891;DHT22;9071;48.220;14.480;2023-08-30T18:39:49;15.60;99.90
17891;DHT22;9071;48.220;14.480;2023-08-30T18:44:51;15.60;99.90
17891;DHT22;9071;48.220;14.480;2023-08-30T18:49:53;15.70;99.90
17891;DHT22;9071;48.220;14.480;2023-08-30T18:54:57;15.70;99.90
17891;DHT22;9071;48.220;14.480;2023-08-30T18:59:59;15.60;99.90
17891;DHT22;9071;48.220;14.480;2023-08-30T19:05:05;15.60;99.90
17891;DHT22;9071;48.220;14.480;2023-08-30T19:10:09;15.60;99.90
17891;DHT22;9071;48.220;14.480;2023-08-30T19:15:11;15.60;99.90
17891;DHT22;9071;48.220;14.480;2023-08-30T19:20:14;15.50;99.90
17891;DHT22;9071;48.220;14.480;2023-08-30T19:25:18;15.50;99.90
17891;DHT22;9071;48.220;14.480;2023-08-30T19:30:20;15.50;99.90
17891;DHT22;9071;48.220;14.480;2023-08-30T19:35:22;15.40;99.90
17891;DHT22;9071;48.220;14.480;2023-08-30T19:40:26;15.40;99.90
17891;DHT22;9071;48.220;14.480;2023-08-30T19:45:28;15.40;99.90
17891;DHT22;9071;48.220;14.480;2023-08-30T19:50:30;15.30;99.90
17891;DHT22;9071;48.220;14.480;2023-08-30T19:55:33;15.20;99.90
17891;DHT22;9071;48.220;14.480;2023-08-30T20:00:35;15.20;99.90
17891;DHT22;9071;48.220;14.480;2023-08-30T20:05:45;15.10;99.90
17891;DHT22;9071;48.220;14.480;2023-08-30T20:10:49;15.00;99.90
17891;DHT22;9071;48.220;14.480;2023-08-30T20:15:57;15.00;99.90
17891;DHT22;9071;48.220;14.480;2023-08-30T20:21:00;14.90;99.90
17891;DHT22;9071;48.220;14.480;2023-08-30T20:26:09;14.90;99.90
17891;DHT22;9071;48.220;14.480;2023-08-30T20:31:11;14.90;99.90
17891;DHT22;9071;48.220;14.480;2023-08-30T20:36:14;14.80;99.90
17891;DHT22;9071;48.220;14.480;2023-08-30T20:41:18;14.70;99.90
17891;DHT22;9071;48.220;14.480;2023-08-30T20:46:21;14.60;99.90
17891;DHT22;9071;48.220;14.480;2023-08-30T20:51:23;14.60;99.90
17891;DHT22;9071;48.220;14.480;2023-08-30T20:56:27;14.50;99.90
17891;DHT22;9071;48.220;14.480;2023-08-30T21:01:29;14.40;99.90
17891;DHT22;9071;48.220;14.480;2023-08-30T21:06:33;14.30;99.90
17891;DHT22;9071;48.220;14.480;2023-08-30T21:11:37;14.30;99.90
17891;DHT22;9071;48.220;14.480;2023-08-30T21:16:39;14.30;99.90
17891;DHT22;9071;48.220;14.480;2023-08-30T21:21:41;14.30;99.90
17891;DHT22;9071;48.220;14.480;2023-08-30T21:26:44;14.20;99.90
17891;DHT22;9071;48.220;14.480;2023-08-30T21:31:46;14.20;99.90
17891;DHT22;9071;48.220;14.480;2023-08-30T21:36:49;14.10;99.90
17891;DHT22;9071;48.220;14.480;2023-08-30T21:41:52;14.10;99.90
17891;DHT22;9071;48.220;14.480;2023-08-30T21:46:54;14.00;99.90
17891;DHT22;9071;48.220;14.480;2023-08-30T21:51:56;14.00;99.90
17891;DHT22;9071;48.220;14.480;2023-08-30T21:56:59;13.90;99.90
17891;DHT22;9071;48.220;14.480;2023-08-30T22:02:01;13.90;99.90
17891;DHT22;9071;48.220;14.480;2023-08-30T22:07:04;13.80;99.90
17891;DHT22;9071;48.220;14.480;2023-08-30T22:12:08;13.80;99.90
17891;DHT22;9071;48.220;14.480;2023-08-30T22:17:10;13.70;99.90
17891;DHT22;9071;48.220;14.480;2023-08-30T22:22:12;13.70;99.90
17891;DHT22;9071;48.220;14.480;2023-08-30T22:27:15;13.70;99.90
17891;DHT22;9071;48.220;14.480;2023-08-30T22:32:17;13.70;99.90
17891;DHT22;9071;48.220;14.480;2023-08-30T22:37:19;13.80;99.90
17891;DHT22;9071;48.220;14.480;2023-08-30T22:42:23;13.80;99.90
17891;DHT22;9071;48.220;14.480;2023-08-30T22:47:25;13.70;99.90
17891;DHT22;9071;48.220;14.480;2023-08-30T22:52:27;13.60;99.90
17891;DHT22;9071;48.220;14.480;2023-08-30T22:57:31;13.60;99.90
17891;DHT22;9071;48.220;14.480;2023-08-30T23:02:33;13.50;99.90
17891;DHT22;9071;48.220;14.480;2023-08-30T23:07:35;13.50;99.90
17891;DHT22;9071;48.220;14.480;2023-08-30T23:12:39;13.50;99.90
17891;DHT22;9071;48.220;14.480;2023-08-30T23:17:42;13.50;99.90
17891;DHT22;9071;48.220;14.480;2023-08-30T23:22:45;13.40;99.90
17891;DHT22;9071;48.220;14.480;2023-08-30T23:27:48;13.50;99.90
17891;DHT22;9071;48.220;14.480;2023-08-30T23:32:50;13.50;99.90
17891;DHT22;9071;48.220;14.480;2023-08-30T23:37:52;13.40;99.90
17891;DHT22;9071;48.220;14.480;2023-08-30T23:42:56;13.30;99.90
17891;DHT22;9071;48.220;14.480;2023-08-30T23:47:58;13.30;99.90
17891;DHT22;9071;48.220;14.480;2023-08-30T23:53:00;13.20;99.90
17891;DHT22;9071;48.220;14.480;2023-08-30T23:58:05;13.10;99.90
